»·PEaware :: N112PC KBFI-KSLE

N112PC :: KBFI-KSLE

FLIGHT INFORMATION

Flight Status: Arrived
Operator: Privately registered:
United States
More flights under this callsign
Pilot: Gabor H. (24209)
Aircraft: PILATUS PC-12 EAGLE
(PC12)
More flights by this aircraft type
Origin: KBFI Boeing Field/King Co Intl
United States
Destination: KSLE McNary
United States
More flights between these airports :: More routes between these airports
Route: +NRVNA1 ALDER V495 UBG
File this flight plan on PilotEdge
Remarks:
Altitude:
(Current/Filed)
17,000ft
Speed:
(Current/Filed)
260kts
Departed: 03-Jun-19 07:22 AM
Arrived: 03-Jun-19 08:06 AM
Distance/Time
Traveled:
160nm/0:44
Distance/Time
To Go:
Arrived

Flight Plot

Page will automatically refresh every two minutes.

Flight plan parsing failed; only flown route is shown


Map Options




Map Legend


Flown Route
Filed Route
Departure Airport
Arrival Airport
Navaid (VOR, NDB)
Fix

Horizontal Profiles

Position Reports

Time Latitude Longitude Heading Altitude Ground
Speed
03-Jun-19 07:02 47.522872 -122.293672 157 21ft 0kts
03-Jun-19 07:03 47.522872 -122.293672 157 21ft 0kts
03-Jun-19 07:04 47.522872 -122.293672 157 21ft 0kts
03-Jun-19 07:05 47.522872 -122.293672 157 21ft 0kts
03-Jun-19 07:06 47.522872 -122.293672 157 21ft 0kts
03-Jun-19 07:07 47.522872 -122.293672 157 21ft 0kts
03-Jun-19 07:08 47.522872 -122.293672 157 21ft 0kts
03-Jun-19 07:09 47.522872 -122.293672 157 21ft 0kts
03-Jun-19 07:10 47.522872 -122.293672 157 21ft 0kts
03-Jun-19 07:11 47.522872 -122.293672 157 21ft 0kts
03-Jun-19 07:12 47.522872 -122.293672 157 21ft 0kts
03-Jun-19 07:13 47.522860 -122.293665 157 21ft 0kts
03-Jun-19 07:14 47.522860 -122.293665 157 21ft 0kts
03-Jun-19 07:15 47.522808 -122.293760 316 21ft 1kts
03-Jun-19 07:16 47.525841 -122.297345 329 21ft 25kts
03-Jun-19 07:17 47.530662 -122.299781 328 21ft 20kts
03-Jun-19 07:18 47.536029 -122.304567 324 21ft 17kts
03-Jun-19 07:19 47.540260 -122.308323 325 21ft 14kts
03-Jun-19 07:20 47.541037 -122.309755 241 21ft 2kts
03-Jun-19 07:21 47.535824 -122.307394 150 43ft 98kts
03-Jun-19 07:22 47.504731 -122.281496 150 1461ft 143kts
03-Jun-19 07:23 47.469165 -122.250781 156 2973ft 152kts
03-Jun-19 07:24 47.424081 -122.242199 175 4515ft 180kts
03-Jun-19 07:25 47.371269 -122.235424 178 6030ft 198kts
03-Jun-19 07:26 47.316158 -122.250190 194 7539ft 205kts
03-Jun-19 07:27 47.259339 -122.269038 195 9045ft 213kts
03-Jun-19 07:28 47.200714 -122.288480 198 10556ft 216kts
03-Jun-19 07:29 47.142278 -122.307552 200 12057ft 214kts
03-Jun-19 07:30 47.083749 -122.326641 200 13563ft 221kts
03-Jun-19 07:31 47.022811 -122.346766 200 15066ft 226kts
03-Jun-19 07:32 46.961279 -122.366872 200 16566ft 225kts
03-Jun-19 07:33 46.897277 -122.388281 200 17014ft 248kts
03-Jun-19 07:35 46.828506 -122.411095 196 17010ft 257kts
03-Jun-19 07:36 46.757188 -122.425082 193 17013ft 260kts
03-Jun-19 07:37 46.685143 -122.437350 193 17016ft 261kts
03-Jun-19 07:38 46.612917 -122.449481 193 17016ft 261kts
03-Jun-19 07:39 46.540606 -122.461565 193 17027ft 261kts
03-Jun-19 07:40 46.468301 -122.473632 193 17032ft 262kts
03-Jun-19 07:41 46.395648 -122.485711 193 17032ft 262kts
03-Jun-19 07:42 46.323107 -122.497745 192 17033ft 262kts
03-Jun-19 07:43 46.250534 -122.509732 192 17035ft 262kts
03-Jun-19 07:44 46.177896 -122.521688 192 17036ft 263kts
03-Jun-19 07:45 46.105232 -122.533598 192 17035ft 263kts
03-Jun-19 07:46 46.032228 -122.545468 192 17032ft 263kts
03-Jun-19 07:47 45.959237 -122.557368 192 16918ft 268kts
03-Jun-19 07:48 45.884666 -122.569531 192 16074ft 269kts
03-Jun-19 07:49 45.810029 -122.581687 192 15216ft 271kts
03-Jun-19 07:50 45.737999 -122.608359 212 13761ft 263kts
03-Jun-19 07:51 45.675954 -122.663519 218 12586ft 263kts
03-Jun-19 07:52 45.610157 -122.709821 202 11389ft 267kts
03-Jun-19 07:53 45.539418 -122.739983 201 10189ft 263kts
03-Jun-19 07:53 45.481226 -122.764892 201 9188ft 260kts
03-Jun-19 07:55 45.400568 -122.799533 200 7786ft 257kts
03-Jun-19 07:56 45.332595 -122.828358 199 6720ft 253kts
03-Jun-19 07:56 45.276721 -122.851940 199 5888ft 250kts
03-Jun-19 07:58 45.199075 -122.884407 198 4724ft 248kts
03-Jun-19 07:59 45.133386 -122.911883 197 3724ft 244kts
03-Jun-19 07:59 45.079644 -122.935340 202 2890ft 238kts
03-Jun-19 08:00 45.022808 -122.976546 214 2505ft 224kts
03-Jun-19 08:01 44.970874 -123.026967 215 1964ft 219kts
03-Jun-19 08:02 44.919206 -123.040272 179 1502ft 168kts
03-Jun-19 08:03 44.880668 -123.033440 128 1248ft 138kts
03-Jun-19 08:04 44.887672 -123.004464 13 989ft 84kts
03-Jun-19 08:05 44.906017 -123.003667 320 217ft 21kts
03-Jun-19 08:06 44.907810 -123.005600 145 217ft 10kts
03-Jun-19 08:07 44.906328 -123.006270 270 217ft 0kts
03-Jun-19 08:08 44.906328 -123.006270 270 217ft 0kts

Navigation Log

Ident Type
Flight plan parsing failed, navigation log unavailable